Time;durP1;ratioP1;P1;durP2;ratioP2;P2;SDS_P1;SDS_P2;PMS_P1;PMS_P2;Temp;Humidity;BMP_temperature;BMP_pressure;BME280_temperature;BME280_humidity;BME280_pressure;Samples;Min_cycle;Max_cycle;Signal;HPM_P1;HPM_P2
2022/09/10 00:01:11;;;;;;;7.97;3.92;;;;;;;;;;4934800;29;20047;-76
2022/09/10 00:03:37;;;;;;;9.02;3.60;;;;;;;;;;4934852;28;20125;-76
2022/09/10 00:06:04;;;;;;;11.15;3.67;;;;;;;;;;4934916;28;20438;-76
2022/09/10 00:08:32;;;;;;;7.03;3.60;;;;;;;;;;4933885;28;20067;-74
2022/09/10 00:11:03;;;;;;;13.35;3.88;;;;;;;;;;4934598;29;20431;-75
2022/09/10 00:13:29;;;;;;;5.95;3.60;;;;;;;;;;4934493;28;20093;-74
2022/09/10 00:15:55;;;;;;;7.28;3.55;;;;;;;;;;4935655;28;20036;-76
2022/09/10 00:18:21;;;;;;;6.45;3.70;;;;;;;;;;4937155;29;20035;-74
2022/09/10 00:20:50;;;;;;;7.97;3.97;;;;;;;;;;4935381;28;20035;-74
2022/09/10 00:23:17;;;;;;;11.55;4.05;;;;;;;;;;4935138;28;20051;-76
2022/09/10 00:25:43;;;;;;;7.35;3.75;;;;;;;;;;4960942;23;20158;-71
2022/09/10 00:28:09;;;;;;;7.75;3.85;;;;;;;;;;4952687;28;20028;-73
2022/09/10 00:30:42;;;;;;;8.98;3.97;;;;;;;;;;4967697;28;20629;-71
2022/09/10 00:33:08;;;;;;;12.15;4.47;;;;;;;;;;4952560;29;20384;-73
2022/09/10 00:35:35;;;;;;;10.85;3.88;;;;;;;;;;4952705;28;20260;-73
2022/09/10 00:38:01;;;;;;;7.90;3.88;;;;;;;;;;4952609;29;20030;-73
2022/09/10 00:40:27;;;;;;;6.40;3.95;;;;;;;;;;4952632;28;20111;-72
2022/09/10 00:42:53;;;;;;;9.70;4.20;;;;;;;;;;4952518;29;20034;-72
2022/09/10 00:45:21;;;;;;;8.27;4.68;;;;;;;;;;4952228;28;20057;-72
2022/09/10 00:47:49;;;;;;;4.53;3.75;;;;;;;;;;4952353;28;20078;-72
2022/09/10 00:50:18;;;;;;;9.60;4.30;;;;;;;;;;4952260;29;20506;-73
2022/09/10 00:52:46;;;;;;;7.15;4.10;;;;;;;;;;4952336;28;20039;-74
2022/09/10 00:55:13;;;;;;;13.00;4.30;;;;;;;;;;4952146;28;20026;-71
2022/09/10 00:57:39;;;;;;;12.13;4.57;;;;;;;;;;4952100;29;20383;-72
2022/09/10 01:00:08;;;;;;;9.10;4.80;;;;;;;;;;4952623;29;20032;-74
2022/09/10 01:02:35;;;;;;;13.38;4.85;;;;;;;;;;4952076;29;20031;-72
2022/09/10 01:05:02;;;;;;;8.13;4.20;;;;;;;;;;4951965;29;20098;-72
2022/09/10 01:07:28;;;;;;;13.57;4.75;;;;;;;;;;4951802;28;20019;-72
2022/09/10 01:09:58;;;;;;;8.65;4.85;;;;;;;;;;4952111;29;20353;-72
2022/09/10 01:12:29;;;;;;;10.15;4.40;;;;;;;;;;4951942;29;20026;-72
2022/09/10 01:15:01;;;;;;;9.32;4.35;;;;;;;;;;4951988;29;20098;-72
2022/09/10 01:17:36;;;;;;;13.35;4.50;;;;;;;;;;4951514;28;20114;-74
2022/09/10 01:20:06;;;;;;;9.80;4.38;;;;;;;;;;4951741;29;20027;-72
2022/09/10 01:22:50;;;;;;;8.98;4.60;;;;;;;;;;4951917;28;20015;-73
2022/09/10 01:25:29;;;;;;;9.02;4.50;;;;;;;;;;4953838;28;20023;-72
2022/09/10 01:27:56;;;;;;;12.18;4.22;;;;;;;;;;4952100;28;20106;-72
2022/09/10 01:30:23;;;;;;;9.15;4.20;;;;;;;;;;4952254;28;20031;-72
2022/09/10 01:32:58;;;;;;;12.05;4.43;;;;;;;;;;4951498;28;20476;-73
2022/09/10 01:35:29;;;;;;;9.10;4.30;;;;;;;;;;4950673;28;20535;-72
2022/09/10 01:37:56;;;;;;;7.63;4.32;;;;;;;;;;4952017;28;20391;-73
2022/09/10 01:40:28;;;;;;;11.50;4.85;;;;;;;;;;4951143;28;20028;-73
2022/09/10 01:43:02;;;;;;;11.82;4.97;;;;;;;;;;4950446;29;20455;-72
2022/09/10 01:45:28;;;;;;;10.15;4.70;;;;;;;;;;4950213;28;20023;-72
2022/09/10 01:48:14;;;;;;;8.93;4.13;;;;;;;;;;4950496;28;20035;-71
2022/09/10 01:50:47;;;;;;;7.85;4.40;;;;;;;;;;4950507;29;20457;-73
2022/09/10 01:53:22;;;;;;;10.93;4.43;;;;;;;;;;4949324;28;20027;-73
2022/09/10 01:55:58;;;;;;;11.57;4.80;;;;;;;;;;4950322;28;20031;-73
2022/09/10 01:58:30;;;;;;;6.68;4.40;;;;;;;;;;4952027;28;20278;-73
2022/09/10 02:01:11;;;;;;;8.30;4.22;;;;;;;;;;4951441;29;20089;-73
2022/09/10 02:03:38;;;;;;;7.60;4.50;;;;;;;;;;4950619;28;20510;-73
2022/09/10 02:06:06;;;;;;;12.05;4.95;;;;;;;;;;4950227;28;20031;-74
2022/09/10 02:08:33;;;;;;;8.52;4.63;;;;;;;;;;4950236;29;20075;-74
2022/09/10 02:11:05;;;;;;;14.75;4.85;;;;;;;;;;4948673;28;20030;-73
2022/09/10 02:13:31;;;;;;;11.23;4.82;;;;;;;;;;4950076;29;20023;-73
2022/09/10 02:15:58;;;;;;;8.70;4.72;;;;;;;;;;4950392;28;20114;-72
2022/09/10 02:18:24;;;;;;;11.10;4.75;;;;;;;;;;4948776;29;20102;-73
2022/09/10 02:20:52;;;;;;;11.48;4.80;;;;;;;;;;4949977;29;20436;-74
2022/09/10 02:23:20;;;;;;;7.40;4.50;;;;;;;;;;4950146;29;20606;-72
2022/09/10 02:25:48;;;;;;;8.82;4.80;;;;;;;;;;4949688;28;20027;-72
2022/09/10 02:28:14;;;;;;;10.18;5.43;;;;;;;;;;4950793;29;20039;-75
2022/09/10 02:30:39;;;;;;;10.98;5.03;;;;;;;;;;4950234;28;20019;-73
2022/09/10 02:33:06;;;;;;;10.48;4.35;;;;;;;;;;4953539;29;20035;-72
2022/09/10 02:35:32;;;;;;;11.98;4.80;;;;;;;;;;4955020;28;20032;-73
2022/09/10 02:37:58;;;;;;;8.82;4.60;;;;;;;;;;4958181;28;20054;-73
2022/09/10 02:40:24;;;;;;;9.02;4.65;;;;;;;;;;4953929;28;20084;-79
2022/09/10 02:42:50;;;;;;;9.00;4.65;;;;;;;;;;4953711;28;20035;-75
2022/09/10 02:45:16;;;;;;;9.73;4.97;;;;;;;;;;4957170;28;20361;-74
2022/09/10 02:47:42;;;;;;;10.98;4.50;;;;;;;;;;4956412;28;20031;-74
2022/09/10 02:50:10;;;;;;;10.88;5.50;;;;;;;;;;4958577;28;20655;-74
2022/09/10 02:52:36;;;;;;;8.48;4.50;;;;;;;;;;4958119;29;20080;-74
2022/09/10 02:55:02;;;;;;;8.27;4.20;;;;;;;;;;4956323;29;20058;-74
2022/09/10 02:57:29;;;;;;;9.52;3.92;;;;;;;;;;4954242;28;20042;-74
2022/09/10 02:59:55;;;;;;;8.48;4.28;;;;;;;;;;4954522;29;20019;-74
2022/09/10 03:02:21;;;;;;;7.22;4.05;;;;;;;;;;4956511;28;20407;-73
2022/09/10 03:04:47;;;;;;;7.40;3.92;;;;;;;;;;4953706;29;20024;-74
2022/09/10 03:07:16;;;;;;;9.77;4.47;;;;;;;;;;4953540;28;20070;-75
2022/09/10 03:09:42;;;;;;;10.85;4.05;;;;;;;;;;4954070;28;20024;-73
2022/09/10 03:12:08;;;;;;;10.23;4.43;;;;;;;;;;4953864;29;20031;-75
2022/09/10 03:14:34;;;;;;;5.88;4.20;;;;;;;;;;4954016;29;20362;-73
2022/09/10 03:17:00;;;;;;;8.10;4.35;;;;;;;;;;4953841;28;20035;-74
2022/09/10 03:19:26;;;;;;;7.28;4.10;;;;;;;;;;4959858;29;20038;-74
2022/09/10 03:21:52;;;;;;;5.75;3.72;;;;;;;;;;4958347;29;20384;-73
2022/09/10 03:24:18;;;;;;;6.82;3.67;;;;;;;;;;4952711;29;20027;-75
2022/09/10 03:26:44;;;;;;;5.90;3.40;;;;;;;;;;4952255;28;20082;-74
2022/09/10 03:29:10;;;;;;;9.95;4.47;;;;;;;;;;4953795;28;20112;-73
2022/09/10 03:31:36;;;;;;;10.38;4.35;;;;;;;;;;4953910;29;20031;-74
2022/09/10 03:34:02;;;;;;;11.30;3.95;;;;;;;;;;4953751;28;20030;-73
2022/09/10 03:36:30;;;;;;;8.35;4.07;;;;;;;;;;4953559;28;20035;-74
2022/09/10 03:38:56;;;;;;;6.18;4.00;;;;;;;;;;4953677;28;20027;-74
2022/09/10 03:41:22;;;;;;;7.35;4.20;;;;;;;;;;4953552;29;20023;-74
2022/09/10 03:43:48;;;;;;;10.05;4.35;;;;;;;;;;4953411;29;20472;-74
2022/09/10 03:46:14;;;;;;;8.93;3.63;;;;;;;;;;4953071;28;20507;-74
2022/09/10 03:48:42;;;;;;;7.95;4.00;;;;;;;;;;4953347;28;20027;-73
2022/09/10 03:51:09;;;;;;;6.65;4.25;;;;;;;;;;4953616;28;20058;-74
2022/09/10 03:53:37;;;;;;;8.75;4.30;;;;;;;;;;4953793;28;20027;-73
2022/09/10 03:56:03;;;;;;;14.95;5.00;;;;;;;;;;4953259;28;20031;-75
2022/09/10 03:58:31;;;;;;;9.63;5.20;;;;;;;;;;4953080;28;20487;-73
2022/09/10 04:00:57;;;;;;;11.70;4.80;;;;;;;;;;4951749;28;20020;-73
2022/09/10 04:03:23;;;;;;;10.02;4.95;;;;;;;;;;4953115;28;20088;-73
2022/09/10 04:05:49;;;;;;;10.00;4.93;;;;;;;;;;4952924;28;20027;-73
2022/09/10 04:08:15;;;;;;;7.00;4.60;;;;;;;;;;4953369;29;20392;-74
2022/09/10 04:10:42;;;;;;;10.27;4.25;;;;;;;;;;4953625;29;20494;-74
2022/09/10 04:13:09;;;;;;;8.00;4.60;;;;;;;;;;4953049;29;20508;-74
2022/09/10 04:15:36;;;;;;;6.15;4.10;;;;;;;;;;4952879;28;20023;-75
2022/09/10 04:18:02;;;;;;;6.45;4.50;;;;;;;;;;4953356;29;20413;-74
2022/09/10 04:20:28;;;;;;;7.57;4.40;;;;;;;;;;4952924;29;20027;-74
2022/09/10 04:22:55;;;;;;;7.13;4.55;;;;;;;;;;4953035;29;20030;-73
2022/09/10 04:25:21;;;;;;;13.82;6.47;;;;;;;;;;4952491;28;20043;-73
2022/09/10 04:27:48;;;;;;;18.70;9.05;;;;;;;;;;4952985;29;20103;-73
2022/09/10 04:30:14;;;;;;;9.35;5.22;;;;;;;;;;4952772;29;20083;-73
2022/09/10 04:32:40;;;;;;;8.73;5.03;;;;;;;;;;4952889;29;20031;-73
2022/09/10 04:35:07;;;;;;;10.18;5.15;;;;;;;;;;4952740;28;20046;-73
2022/09/10 04:37:33;;;;;;;9.23;4.47;;;;;;;;;;4951328;28;20483;-73
2022/09/10 04:39:59;;;;;;;6.72;4.75;;;;;;;;;;4951714;28;20117;-73
2022/09/10 04:42:26;;;;;;;7.20;5.03;;;;;;;;;;4952568;28;20027;-73
2022/09/10 04:44:52;;;;;;;9.70;4.97;;;;;;;;;;4961372;29;20023;-73
2022/09/10 04:47:18;;;;;;;10.07;5.05;;;;;;;;;;4973907;28;20028;-73
2022/09/10 04:49:44;;;;;;;10.55;4.57;;;;;;;;;;4967383;28;20480;-73
2022/09/10 04:52:11;;;;;;;9.82;4.60;;;;;;;;;;4953227;28;20027;-73
2022/09/10 04:54:38;;;;;;;8.63;4.70;;;;;;;;;;4962555;28;20062;-73
2022/09/10 04:57:04;;;;;;;10.15;5.22;;;;;;;;;;4958626;28;20100;-73
2022/09/10 04:59:30;;;;;;;9.77;5.47;;;;;;;;;;4952892;29;20499;-73
2022/09/10 05:01:56;;;;;;;12.82;5.85;;;;;;;;;;4951250;28;20027;-73
2022/09/10 05:04:22;;;;;;;11.10;6.13;;;;;;;;;;4952222;29;20023;-73
2022/09/10 05:06:49;;;;;;;10.23;5.45;;;;;;;;;;4952190;28;20023;-74
2022/09/10 05:09:15;;;;;;;6.45;4.40;;;;;;;;;;4951201;29;20495;-74
2022/09/10 05:11:41;;;;;;;10.20;5.30;;;;;;;;;;4952671;29;20028;-73
2022/09/10 05:14:07;;;;;;;7.55;5.22;;;;;;;;;;4952424;29;20031;-75
2022/09/10 05:16:35;;;;;;;8.05;5.30;;;;;;;;;;4951942;28;20089;-75
2022/09/10 05:19:01;;;;;;;8.20;5.47;;;;;;;;;;4952114;28;20031;-74
2022/09/10 05:21:28;;;;;;;10.02;5.60;;;;;;;;;;4952019;29;20031;-74
2022/09/10 05:23:55;;;;;;;8.82;5.05;;;;;;;;;;4951956;29;20052;-74
2022/09/10 05:26:21;;;;;;;13.57;4.93;;;;;;;;;;4951630;28;20059;-75
2022/09/10 05:28:47;;;;;;;5.97;4.40;;;;;;;;;;4951942;29;20027;-74
2022/09/10 05:31:13;;;;;;;8.40;4.97;;;;;;;;;;4952518;28;20035;-73
2022/09/10 05:33:39;;;;;;;9.13;5.55;;;;;;;;;;4952199;29;20038;-73
2022/09/10 05:36:09;;;;;;;13.00;6.35;;;;;;;;;;4951434;28;20030;-73
2022/09/10 05:38:35;;;;;;;11.65;6.30;;;;;;;;;;4951600;29;20074;-73
2022/09/10 05:41:01;;;;;;;13.65;6.60;;;;;;;;;;4951933;28;20031;-73
2022/09/10 05:43:28;;;;;;;10.57;6.07;;;;;;;;;;4951460;29;20476;-73
2022/09/10 05:45:54;;;;;;;12.88;5.30;;;;;;;;;;4951934;28;20023;-71
2022/09/10 05:48:20;;;;;;;8.55;5.03;;;;;;;;;;4953869;29;20035;-71
2022/09/10 05:50:46;;;;;;;8.57;5.60;;;;;;;;;;4956020;29;20490;-74
2022/09/10 05:53:12;;;;;;;9.70;5.45;;;;;;;;;;4955562;29;20365;-73
2022/09/10 05:55:39;;;;;;;10.60;6.78;;;;;;;;;;4954702;28;20223;-72
2022/09/10 05:58:05;;;;;;;13.50;5.32;;;;;;;;;;4955808;29;20034;-73
2022/09/10 06:00:31;;;;;;;9.13;5.28;;;;;;;;;;4956044;29;20106;-73
2022/09/10 06:02:57;;;;;;;7.50;5.22;;;;;;;;;;4956517;28;20028;-72
2022/09/10 06:05:23;;;;;;;7.63;4.93;;;;;;;;;;4952864;28;20028;-70
2022/09/10 06:07:49;;;;;;;12.30;5.47;;;;;;;;;;4954566;28;20062;-76
2022/09/10 06:10:15;;;;;;;8.82;5.43;;;;;;;;;;4953382;28;20038;-74
2022/09/10 06:12:45;;;;;;;8.10;4.78;;;;;;;;;;4951933;29;20039;-73
2022/09/10 06:15:11;;;;;;;10.35;5.32;;;;;;;;;;4953547;29;20027;-75
2022/09/10 06:17:37;;;;;;;8.52;5.20;;;;;;;;;;4957131;29;20039;-75
2022/09/10 06:20:03;;;;;;;9.85;5.15;;;;;;;;;;4952574;28;20084;-73
2022/09/10 06:22:30;;;;;;;8.48;5.10;;;;;;;;;;4951882;29;20512;-76
2022/09/10 06:24:57;;;;;;;10.50;5.55;;;;;;;;;;4949829;28;20099;-72
2022/09/10 06:27:23;;;;;;;10.75;5.50;;;;;;;;;;4973492;23;20070;-74
2022/09/10 06:29:50;;;;;;;10.65;5.10;;;;;;;;;;4966451;28;20468;-73
2022/09/10 06:32:16;;;;;;;8.52;5.13;;;;;;;;;;4966434;28;20027;-73
2022/09/10 06:34:41;;;;;;;7.97;4.65;;;;;;;;;;4952244;29;20031;-74
2022/09/10 06:37:07;;;;;;;10.65;5.00;;;;;;;;;;4955815;28;20039;-75
2022/09/10 06:39:34;;;;;;;11.13;5.03;;;;;;;;;;5046803;28;20063;-73
2022/09/10 06:42:00;;;;;;;12.45;5.85;;;;;;;;;;5053309;28;20063;-74
2022/09/10 06:44:28;;;;;;;8.55;4.88;;;;;;;;;;5056314;28;20017;-74
2022/09/10 06:46:54;;;;;;;7.45;4.82;;;;;;;;;;5057782;28;20075;-74
2022/09/10 06:49:20;;;;;;;8.48;5.22;;;;;;;;;;5064515;28;20040;-75
2022/09/10 06:51:48;;;;;;;11.73;5.60;;;;;;;;;;5062144;28;20487;-74
2022/09/10 06:54:14;;;;;;;12.98;6.10;;;;;;;;;;5058813;28;20021;-74
2022/09/10 06:56:41;;;;;;;18.30;6.95;;;;;;;;;;5057724;28;20020;-73
2022/09/10 06:59:07;;;;;;;10.77;5.80;;;;;;;;;;5057451;28;20025;-74
2022/09/10 07:01:33;;;;;;;48.35;26.90;;;;;;;;;;5057555;28;20079;-73
2022/09/10 07:04:00;;;;;;;26.20;17.92;;;;;;;;;;5059869;28;20021;-73
2022/09/10 07:06:27;;;;;;;12.95;6.53;;;;;;;;;;5057339;28;20029;-74
2022/09/10 07:08:54;;;;;;;10.23;5.43;;;;;;;;;;5050942;28;20021;-74
2022/09/10 07:11:20;;;;;;;11.90;5.82;;;;;;;;;;5052170;28;20108;-75
2022/09/10 07:13:48;;;;;;;10.25;5.65;;;;;;;;;;5051945;28;20524;-76
2022/09/10 07:16:17;;;;;;;11.02;6.22;;;;;;;;;;5050215;28;20031;-75
2022/09/10 07:18:43;;;;;;;10.05;5.88;;;;;;;;;;5055286;28;20086;-75
2022/09/10 07:21:14;;;;;;;13.82;6.47;;;;;;;;;;5055654;28;20021;-75
2022/09/10 07:23:40;;;;;;;11.48;6.47;;;;;;;;;;5054442;28;20071;-73
2022/09/10 07:26:08;;;;;;;12.95;6.20;;;;;;;;;;5055031;28;20393;-74
2022/09/10 07:28:35;;;;;;;14.40;6.40;;;;;;;;;;5055538;28;20060;-75
2022/09/10 07:31:09;;;;;;;15.40;7.28;;;;;;;;;;5055392;28;20029;-75
2022/09/10 07:33:35;;;;;;;;;;;;;;;;;;5055768;28;20067;-75
2022/09/10 07:36:02;;;;;;;18.20;8.02;;;;;;;;;;5055269;28;19905;-73
2022/09/10 07:38:27;;;;;;;11.52;6.82;;;;;;;;;;5055158;28;20024;-74
2022/09/10 07:40:53;;;;;;;13.73;7.60;;;;;;;;;;5055240;28;20108;-75
2022/09/10 07:43:19;;;;;;;14.00;7.80;;;;;;;;;;5055580;28;20057;-75
2022/09/10 07:45:45;;;;;;;17.20;7.68;;;;;;;;;;5055025;28;20036;-74
2022/09/10 07:48:12;;;;;;;15.60;7.40;;;;;;;;;;5054864;28;20028;-74
2022/09/10 07:50:38;;;;;;;13.07;7.18;;;;;;;;;;5055365;28;20017;-74
2022/09/10 07:53:05;;;;;;;12.20;7.80;;;;;;;;;;5054652;28;20017;-74
2022/09/10 07:55:31;;;;;;;11.13;6.75;;;;;;;;;;5054345;28;20032;-74
2022/09/10 07:57:57;;;;;;;12.43;7.25;;;;;;;;;;5053061;28;20029;-74
2022/09/10 08:00:23;;;;;;;14.15;8.60;;;;;;;;;;5054343;28;20087;-75
2022/09/10 08:02:49;;;;;;;12.20;7.57;;;;;;;;;;5054515;28;20421;-74
2022/09/10 08:05:15;;;;;;;14.73;7.90;;;;;;;;;;5054418;28;20032;-74
2022/09/10 08:07:41;;;;;;;11.70;8.30;;;;;;;;;;5054572;28;20096;-74
2022/09/10 08:10:08;;;;;;;18.27;8.65;;;;;;;;;;5054401;28;20493;-73
2022/09/10 08:12:38;;;;;;;14.90;8.50;;;;;;;;;;5054534;28;20115;-75
2022/09/10 08:15:04;;;;;;;19.10;10.52;;;;;;;;;;5054837;28;20031;-73
2022/09/10 08:17:30;;;;;;;23.92;11.05;;;;;;;;;;5054697;28;20498;-74
2022/09/10 08:19:57;;;;;;;20.50;12.18;;;;;;;;;;5055307;28;20028;-75
2022/09/10 08:22:23;;;;;;;23.63;13.38;;;;;;;;;;5056144;28;20048;-75
2022/09/10 08:24:49;;;;;;;25.75;13.35;;;;;;;;;;5055779;28;20031;-76
2022/09/10 08:27:16;;;;;;;18.55;11.70;;;;;;;;;;5054740;28;20040;-72
2022/09/10 08:29:42;;;;;;;24.50;13.27;;;;;;;;;;5053872;28;20117;-74
2022/09/10 08:32:09;;;;;;;33.10;17.55;;;;;;;;;;5054757;28;20024;-72
2022/09/10 08:34:35;;;;;;;23.48;12.57;;;;;;;;;;5054663;28;20060;-73
2022/09/10 08:37:02;;;;;;;25.17;14.00;;;;;;;;;;5055797;28;20036;-73
2022/09/10 08:39:29;;;;;;;27.52;13.73;;;;;;;;;;5054959;28;20043;-73
2022/09/10 08:41:58;;;;;;;35.10;18.95;;;;;;;;;;5054344;28;20013;-74
2022/09/10 08:44:31;;;;;;;28.63;15.70;;;;;;;;;;5053949;28;20516;-76
2022/09/10 08:47:03;;;;;;;25.48;14.20;;;;;;;;;;5053527;28;20595;-73
2022/09/10 08:49:45;;;;;;;43.25;24.70;;;;;;;;;;5054834;28;20146;-74
2022/09/10 08:52:28;;;;;;;19.10;12.73;;;;;;;;;;5054538;28;20033;-73
2022/09/10 08:54:54;;;;;;;22.73;13.65;;;;;;;;;;5056603;28;20355;-77
2022/09/10 08:57:33;;;;;;;18.73;12.40;;;;;;;;;;5054571;28;20031;-74
2022/09/10 08:59:59;;;;;;;19.00;13.23;;;;;;;;;;5055368;28;20025;-74
2022/09/10 09:02:44;;;;;;;24.80;14.80;;;;;;;;;;5055657;28;20027;-73
2022/09/10 09:05:10;;;;;;;;;;;;;;;;;;5053434;28;20120;-73
2022/09/10 09:07:38;;;;;;;23.52;13.57;;;;;;;;;;5053558;28;19932;-73
2022/09/10 09:10:14;;;;;;;22.65;14.80;;;;;;;;;;5053872;28;20025;-73
2022/09/10 09:12:46;;;;;;;14.35;11.63;;;;;;;;;;5053381;28;20029;-74
2022/09/10 09:15:21;;;;;;;25.33;14.05;;;;;;;;;;5054409;28;20426;-73
2022/09/10 09:18:09;;;;;;;20.25;13.63;;;;;;;;;;5058534;28;20033;-73
2022/09/10 09:20:35;;;;;;;20.85;15.15;;;;;;;;;;5068462;28;20508;-74
2022/09/10 09:23:16;;;;;;;19.27;12.70;;;;;;;;;;5059415;28;20021;-74
2022/09/10 09:25:50;;;;;;;15.95;10.90;;;;;;;;;;5058221;28;20067;-75
2022/09/10 09:28:22;;;;;;;21.17;13.55;;;;;;;;;;5058547;28;20080;-75
2022/09/10 09:30:49;;;;;;;23.23;15.25;;;;;;;;;;5053680;28;20028;-74
2022/09/10 09:33:16;;;;;;;19.85;12.82;;;;;;;;;;5053345;28;20045;-74
2022/09/10 09:35:44;;;;;;;17.00;11.40;;;;;;;;;;5052937;28;20501;-75
2022/09/10 09:38:10;;;;;;;19.55;12.85;;;;;;;;;;5053693;28;20025;-75
2022/09/10 09:40:45;;;;;;;16.98;10.40;;;;;;;;;;5052801;28;20039;-74
2022/09/10 09:43:22;;;;;;;13.13;9.43;;;;;;;;;;5052991;28;20025;-74
2022/09/10 09:45:49;;;;;;;15.02;10.30;;;;;;;;;;5059055;28;20446;-75
2022/09/10 09:48:16;;;;;;;15.48;9.77;;;;;;;;;;5058232;28;20025;-74
2022/09/10 09:50:44;;;;;;;14.98;9.20;;;;;;;;;;5054445;28;20445;-74
2022/09/10 09:53:17;;;;;;;15.90;8.95;;;;;;;;;;5052671;28;20117;-75
2022/09/10 09:55:46;;;;;;;14.80;9.75;;;;;;;;;;5052647;28;20029;-75
2022/09/10 09:58:25;;;;;;;17.05;11.05;;;;;;;;;;5054719;28;20482;-75
2022/09/10 10:01:05;;;;;;;13.68;8.43;;;;;;;;;;5052726;28;20056;-78
2022/09/10 10:03:32;;;;;;;12.43;7.30;;;;;;;;;;5052729;28;20382;-75
2022/09/10 10:06:08;;;;;;;13.63;7.38;;;;;;;;;;5052191;28;20025;-75
2022/09/10 10:08:40;;;;;;;15.35;7.30;;;;;;;;;;5051246;28;20032;-77
2022/09/10 10:11:06;;;;;;;14.80;7.30;;;;;;;;;;5052830;28;20032;-76
2022/09/10 10:13:40;;;;;;;12.65;6.90;;;;;;;;;;5053599;28;20031;-74
2022/09/10 10:16:21;;;;;;;13.13;7.00;;;;;;;;;;5052939;28;20405;-74
2022/09/10 10:18:47;;;;;;;15.50;7.05;;;;;;;;;;5054433;28;20115;-76
2022/09/10 10:21:30;;;;;;;13.95;6.95;;;;;;;;;;5052145;28;20021;-75
2022/09/10 10:23:56;;;;;;;13.38;6.57;;;;;;;;;;5054499;28;20025;-75
2022/09/10 10:26:22;;;;;;;11.75;5.93;;;;;;;;;;5055197;28;20032;-75
2022/09/10 10:28:50;;;;;;;11.32;6.40;;;;;;;;;;5039535;28;20042;-71
2022/09/10 10:31:17;;;;;;;10.48;5.88;;;;;;;;;;4959489;28;20031;-73
2022/09/10 10:34:06;;;;;;;11.20;6.32;;;;;;;;;;4991688;28;20031;-72
2022/09/10 10:36:53;;;;;;;15.38;5.88;;;;;;;;;;4959778;28;20040;-73
2022/09/10 10:39:40;;;;;;;11.20;6.25;;;;;;;;;;4981044;28;20027;-74
2022/09/10 10:42:24;;;;;;;12.80;7.10;;;;;;;;;;4977880;28;20019;-75
2022/09/10 10:44:56;;;;;;;13.98;6.68;;;;;;;;;;5008949;28;20021;-74
2022/09/10 10:47:29;;;;;;;14.27;6.88;;;;;;;;;;4957769;28;20023;-74
2022/09/10 10:50:04;;;;;;;15.38;7.53;;;;;;;;;;4992679;28;20036;-75
2022/09/10 10:52:43;;;;;;;17.00;7.60;;;;;;;;;;4977619;28;20057;-74
2022/09/10 10:55:12;;;;;;;13.43;7.45;;;;;;;;;;4974475;28;20125;-75
2022/09/10 10:57:55;;;;;;;12.52;6.88;;;;;;;;;;4982538;28;20034;-76
2022/09/10 11:00:21;;;;;;;12.55;6.00;;;;;;;;;;4983376;28;20380;-74
2022/09/10 11:02:53;;;;;;;10.00;6.32;;;;;;;;;;5000357;28;20535;-74
2022/09/10 11:05:38;;;;;;;14.85;6.22;;;;;;;;;;4959420;28;20027;-73
2022/09/10 11:08:08;;;;;;;16.30;8.50;;;;;;;;;;4974507;28;20023;-74
2022/09/10 11:10:44;;;;;;;19.70;9.40;;;;;;;;;;5004177;28;20126;-74
2022/09/10 11:13:14;;;;;;;22.70;11.45;;;;;;;;;;4991422;28;20221;-72
2022/09/10 11:15:43;;;;;;;22.00;10.48;;;;;;;;;;4989531;28;20121;-76
2022/09/10 11:18:15;;;;;;;24.65;12.25;;;;;;;;;;4969860;28;20573;-74
2022/09/10 11:21:05;;;;;;;22.52;10.05;;;;;;;;;;4957089;28;20028;-74
2022/09/10 11:23:36;;;;;;;16.17;8.43;;;;;;;;;;4946533;28;20365;-79
2022/09/10 11:26:22;;;;;;;12.57;7.63;;;;;;;;;;4998483;28;20036;-73
2022/09/10 11:29:07;;;;;;;11.00;6.68;;;;;;;;;;4969892;28;20040;-72
2022/09/10 11:31:35;;;;;;;12.48;7.78;;;;;;;;;;4987114;28;20312;-73
2022/09/10 11:34:13;;;;;;;16.13;7.25;;;;;;;;;;5004403;28;20043;-75
2022/09/10 11:36:46;;;;;;;15.30;7.28;;;;;;;;;;5004370;28;20031;-74
2022/09/10 11:39:16;;;;;;;10.27;6.82;;;;;;;;;;4957929;29;20047;-76
2022/09/10 11:41:43;;;;;;;13.15;6.72;;;;;;;;;;4971447;28;20034;-73
2022/09/10 11:44:15;;;;;;;18.55;11.93;;;;;;;;;;4961137;28;20035;-73
2022/09/10 11:46:41;;;;;;;16.15;7.78;;;;;;;;;;4970978;28;20047;-72
2022/09/10 11:49:13;;;;;;;15.88;7.95;;;;;;;;;;4974860;28;20053;-71
2022/09/10 11:51:40;;;;;;;14.75;6.65;;;;;;;;;;4965856;28;20097;-74
2022/09/10 11:54:11;;;;;;;11.95;7.10;;;;;;;;;;4956434;28;20027;-74
2022/09/10 11:56:38;;;;;;;11.63;6.68;;;;;;;;;;4954756;28;20050;-74
2022/09/10 11:59:07;;;;;;;12.45;7.15;;;;;;;;;;4959870;28;20109;-76
2022/09/10 12:01:48;;;;;;;12.63;6.00;;;;;;;;;;4956124;28;20383;-76
2022/09/10 12:04:21;;;;;;;12.70;4.95;;;;;;;;;;4952349;28;20022;-74
2022/09/10 12:06:56;;;;;;;8.70;4.55;;;;;;;;;;4953260;28;20500;-74
2022/09/10 12:09:27;;;;;;;8.43;4.25;;;;;;;;;;4953560;29;20028;-76
2022/09/10 12:12:00;;;;;;;11.73;4.68;;;;;;;;;;4953526;29;20027;-74
2022/09/10 12:14:27;;;;;;;11.75;3.97;;;;;;;;;;4952457;28;20034;-75
2022/09/10 12:17:07;;;;;;;9.00;3.42;;;;;;;;;;4952784;28;20122;-75
2022/09/10 12:19:36;;;;;;;12.98;6.22;;;;;;;;;;4953649;28;20460;-75
2022/09/10 12:22:22;;;;;;;8.50;4.80;;;;;;;;;;4953630;28;20026;-74
2022/09/10 12:24:53;;;;;;;10.05;4.13;;;;;;;;;;4946861;29;20043;-73
2022/09/10 12:27:19;;;;;;;5.97;2.47;;;;;;;;;;4953073;28;20054;-73
2022/09/10 12:29:47;;;;;;;6.28;2.08;;;;;;;;;;4953035;29;20035;-73
2022/09/10 12:32:19;;;;;;;4.82;1.95;;;;;;;;;;4953203;28;20118;-74
2022/09/10 12:34:47;;;;;;;9.35;2.72;;;;;;;;;;4951735;28;20039;-73
2022/09/10 12:37:19;;;;;;;4.72;2.75;;;;;;;;;;4952317;28;20031;-75
2022/09/10 12:39:45;;;;;;;5.60;2.33;;;;;;;;;;4952755;28;20096;-73
2022/09/10 12:42:28;;;;;;;3.83;2.17;;;;;;;;;;4952490;28;20066;-73
2022/09/10 12:44:55;;;;;;;6.22;2.20;;;;;;;;;;4952770;28;20027;-74
2022/09/10 12:47:21;;;;;;;6.40;2.47;;;;;;;;;;4952803;28;20488;-74
2022/09/10 12:49:50;;;;;;;13.90;9.88;;;;;;;;;;4952847;28;20028;-75
2022/09/10 12:52:19;;;;;;;10.55;2.33;;;;;;;;;;4951423;28;20027;-74
2022/09/10 12:54:54;;;;;;;5.53;2.17;;;;;;;;;;4952807;28;20027;-73
2022/09/10 12:57:27;;;;;;;6.38;1.92;;;;;;;;;;4952466;28;20032;-72
2022/09/10 13:00:17;;;;;;;6.85;2.20;;;;;;;;;;4952462;28;20028;-73
2022/09/10 13:02:43;;;;;;;4.60;1.70;;;;;;;;;;4952063;28;20030;-74
2022/09/10 13:05:18;;;;;;;2.38;1.58;;;;;;;;;;4951139;28;20327;-74
2022/09/10 13:07:44;;;;;;;8.50;1.95;;;;;;;;;;4952433;28;20431;-76
2022/09/10 13:10:21;;;;;;;7.57;2.28;;;;;;;;;;4952580;28;20050;-75
2022/09/10 13:12:49;;;;;;;4.00;1.90;;;;;;;;;;4951070;28;20273;-74
2022/09/10 13:15:17;;;;;;;5.88;1.92;;;;;;;;;;4951933;28;20101;-75
2022/09/10 13:17:50;;;;;;;3.10;1.70;;;;;;;;;;4950933;28;20046;-74
2022/09/10 13:20:19;;;;;;;7.25;2.63;;;;;;;;;;4952773;28;20023;-74
2022/09/10 13:22:54;;;;;;;8.90;2.35;;;;;;;;;;4953833;28;20050;-74
2022/09/10 13:25:43;;;;;;;5.30;1.80;;;;;;;;;;4956323;28;20027;-76
2022/09/10 13:28:35;;;;;;;5.45;2.20;;;;;;;;;;4952918;28;20039;-74
2022/09/10 13:31:04;;;;;;;5.93;2.65;;;;;;;;;;4953290;28;20425;-74
2022/09/10 13:33:33;;;;;;;4.63;2.30;;;;;;;;;;4951380;28;20031;-75
2022/09/10 13:36:19;;;;;;;7.38;2.08;;;;;;;;;;4952867;28;20070;-76
2022/09/10 13:39:04;;;;;;;5.78;2.70;;;;;;;;;;4954440;29;20123;-75
2022/09/10 13:41:33;;;;;;;7.38;2.67;;;;;;;;;;4952993;29;20024;-74
2022/09/10 13:44:02;;;;;;;5.95;2.67;;;;;;;;;;4953100;28;20488;-75
2022/09/10 13:46:34;;;;;;;8.00;3.03;;;;;;;;;;4951912;28;20034;-74
2022/09/10 13:49:05;;;;;;;5.75;2.58;;;;;;;;;;4952085;28;20499;-74
2022/09/10 13:51:31;;;;;;;4.93;2.58;;;;;;;;;;4953468;28;20106;-77
2022/09/10 13:54:04;;;;;;;7.75;2.78;;;;;;;;;;4953044;29;20065;-75
2022/09/10 13:56:31;;;;;;;10.85;3.00;;;;;;;;;;4952687;28;20360;-75
2022/09/10 13:58:59;;;;;;;6.60;2.60;;;;;;;;;;4953124;28;20019;-75
2022/09/10 14:01:45;;;;;;;11.48;3.40;;;;;;;;;;4953202;28;20046;-73
2022/09/10 14:04:21;;;;;;;13.25;5.15;;;;;;;;;;4953054;28;20036;-76
2022/09/10 14:06:47;;;;;;;9.45;3.55;;;;;;;;;;4954925;28;20050;-74
2022/09/10 14:09:13;;;;;;;11.68;3.85;;;;;;;;;;4957006;29;20091;-74
2022/09/10 14:11:41;;;;;;;9.85;3.30;;;;;;;;;;4956601;29;20150;-74
2022/09/10 14:14:12;;;;;;;5.82;2.28;;;;;;;;;;4966265;28;20388;-75
2022/09/10 14:16:43;;;;;;;22.85;14.02;;;;;;;;;;4958094;28;20023;-74
2022/09/10 14:19:16;;;;;;;14.20;6.45;;;;;;;;;;4956505;28;20038;-74
2022/09/10 14:21:42;;;;;;;9.55;3.70;;;;;;;;;;4958528;29;20412;-76
2022/09/10 14:24:29;;;;;;;12.15;3.08;;;;;;;;;;4959292;28;20023;-74
2022/09/10 14:27:14;;;;;;;7.95;3.10;;;;;;;;;;4960417;28;20123;-73
2022/09/10 14:29:41;;;;;;;9.02;2.38;;;;;;;;;;4954655;28;20031;-75
2022/09/10 14:32:37;;;;;;;6.65;2.45;;;;;;;;;;4955367;28;20041;-74
2022/09/10 14:35:22;;;;;;;7.95;3.70;;;;;;;;;;4949277;29;20118;-75
2022/09/10 14:37:49;;;;;;;6.38;2.53;;;;;;;;;;4952291;28;20102;-73
2022/09/10 14:40:16;;;;;;;13.70;7.32;;;;;;;;;;4951268;28;20431;-75
2022/09/10 14:42:42;;;;;;;3.67;1.42;;;;;;;;;;4951191;28;20536;-73
2022/09/10 14:45:37;;;;;;;4.80;1.60;;;;;;;;;;4949747;29;20110;-73
2022/09/10 14:48:04;;;;;;;3.75;1.80;;;;;;;;;;4942905;29;20396;-74